Orogrande, New Mexico
Current Conditions -  °F | °C
As of 1:56 PM on Tuesday 21 Oct 2014 (Local Time) from KM63 Reporting Station
Few Clouds Few Clouds  
Wind Chill: 70°   Ceiling: Unl
Heat Index: 70°   Visibility: 10mi
Dew Point: 53°   Wind: 5mph
Humidity: 55%   Direction: NA
Pressure: 30.05"   Gusts: NA
Location:  32.39°N, 106.09°W
Report Text: KM63 211956Z AUTO VRB04KT 10SM FEW037 21/12 A3005 RMK AO2 SLP122 T02110117
Loading
Personal Weather Stations






























Interactive Weather Map
Tropical Storm Tracking
New forecast layout! Learn more

10-Day Weather Forecast

Advertisements
Track Severe Weather on mobile